This is the latest recevied weather packets stored in our database for station/object WB5LJZ-5. If no packets are shown the sender has not sent any weather packets the latest 10 day(s).
| Time | Temp. | Humidity | Pressure | Rain* | Wind** | Luminosity | Snow |
|---|---|---|---|---|---|---|---|
| 1777773443 | 17.78° C | - | - | 0 mm | 0 m/s | - | - |
| 1777772807 | 18.33° C | - | - | 0 mm | 0 m/s | - | - |
| 1777772173 | 18.89° C | - | - | 0 mm | 0 m/s | - | - |
| 1777771536 | 18.89° C | - | - | 0 mm | 0 m/s | - | - |
| 1777770900 | 19.44° C | - | - | 0 mm | 1.79 m/s, 86° | - | - |
| 1777770264 | 20° C | - | - | 0 mm | 1.79 m/s, 77° | - | - |
| 1777769628 | 21.11° C | - | - | 0 mm | 1.79 m/s, 76° | - | - |
| 1777768992 | 22.22° C | - | - | 0 mm | 1.79 m/s, 103° | - | - |
| 1777768357 | 22.78° C | - | - | 0 mm | 1.79 m/s, 48° | - | - |
| 1777767721 | 22.78° C | - | - | 0 mm | 2.68 m/s, 100° | - | - |
| 1777767085 | 23.33° C | - | - | 0 mm | 2.68 m/s, 83° | - | - |
| 1777766449 | 23.33° C | - | - | 0 mm | 2.24 m/s, 49° | - | - |
| 1777765813 | 23.89° C | - | - | 0 mm | 1.79 m/s, 70° | - | - |
| 1777765178 | 25° C | - | - | 0 mm | 3.13 m/s, 359° | - | - |
| 1777764542 | 23.89° C | - | - | 0 mm | 0 m/s | - | - |
| 1777763906 | 24.44° C | - | - | 0 mm | 0.45 m/s, 62° | - | - |
| 1777763270 | 24.44° C | - | - | 0 mm | 0 m/s | - | - |
| 1777762634 | 23.89° C | - | - | 0 mm | 1.34 m/s, 30° | - | - |
| 1777761999 | 23.89° C | - | - | 0 mm | 3.58 m/s, 23° | - | - |
| 1777761363 | 23.89° C | - | - | 0 mm | 1.79 m/s, 44° | - | - |
| 1777760727 | 23.89° C | - | - | 0 mm | 3.13 m/s, 86° | - | - |
| 1777760091 | 23.89° C | - | - | 0 mm | 4.02 m/s, 65° | - | - |
| 1777759455 | 23.89° C | - | - | 0 mm | 3.58 m/s, 11° | - | - |
| 1777758820 | 23.33° C | - | - | 0 mm | 0 m/s | - | - |
| 1777758184 | 23.33° C | - | - | 0 mm | 0 m/s | - | - |
* Rain latest hour (hover to see other rain measurements)
** Current wind speed in m/s (hover to see current wind gust speed)